sensor_id;sensor_type;location;lat;lon;timestamp;temperature;humidity
26304;DHT22;70693;48.680;8.890;2023-08-08T00:01:02;18.30;99.90
26304;DHT22;70693;48.680;8.890;2023-08-08T00:03:27;18.30;99.90
26304;DHT22;70693;48.680;8.890;2023-08-08T00:05:53;18.30;99.90
26304;DHT22;70693;48.680;8.890;2023-08-08T00:08:19;18.30;99.90
26304;DHT22;70693;48.680;8.890;2023-08-08T00:10:44;18.30;99.90
26304;DHT22;70693;48.680;8.890;2023-08-08T00:13:10;18.30;99.90
26304;DHT22;70693;48.680;8.890;2023-08-08T00:15:36;18.30;99.90
26304;DHT22;70693;48.680;8.890;2023-08-08T00:18:02;18.20;99.90
26304;DHT22;70693;48.680;8.890;2023-08-08T00:20:28;18.30;99.90
26304;DHT22;70693;48.680;8.890;2023-08-08T00:22:53;18.30;99.90
26304;DHT22;70693;48.680;8.890;2023-08-08T00:25:19;18.20;99.90
26304;DHT22;70693;48.680;8.890;2023-08-08T00:27:45;18.30;99.90
26304;DHT22;70693;48.680;8.890;2023-08-08T00:30:11;18.20;99.90
26304;DHT22;70693;48.680;8.890;2023-08-08T00:32:38;18.30;99.90
26304;DHT22;70693;48.680;8.890;2023-08-08T00:35:04;18.20;99.90
26304;DHT22;70693;48.680;8.890;2023-08-08T00:37:30;18.30;99.90
26304;DHT22;70693;48.680;8.890;2023-08-08T00:39:56;18.20;99.90
26304;DHT22;70693;48.680;8.890;2023-08-08T00:42:21;18.20;99.90
26304;DHT22;70693;48.680;8.890;2023-08-08T00:44:47;18.30;99.90
26304;DHT22;70693;48.680;8.890;2023-08-08T00:47:13;18.30;99.90
26304;DHT22;70693;48.680;8.890;2023-08-08T00:49:38;18.30;99.90
26304;DHT22;70693;48.680;8.890;2023-08-08T00:52:06;18.20;99.90
26304;DHT22;70693;48.680;8.890;2023-08-08T00:54:32;18.20;99.90
26304;DHT22;70693;48.680;8.890;2023-08-08T00:56:57;18.30;99.90
26304;DHT22;70693;48.680;8.890;2023-08-08T00:59:23;18.20;99.90
26304;DHT22;70693;48.680;8.890;2023-08-08T01:01:49;18.20;99.90
26304;DHT22;70693;48.680;8.890;2023-08-08T01:04:16;18.20;99.90
26304;DHT22;70693;48.680;8.890;2023-08-08T01:06:54;18.20;99.90
26304;DHT22;70693;48.680;8.890;2023-08-08T01:09:58;18.20;99.90
26304;DHT22;70693;48.680;8.890;2023-08-08T01:12:30;18.20;99.90
26304;DHT22;70693;48.680;8.890;2023-08-08T01:14:56;18.20;99.90
26304;DHT22;70693;48.680;8.890;2023-08-08T01:17:23;18.20;99.90
26304;DHT22;70693;48.680;8.890;2023-08-08T01:19:49;18.20;99.90
26304;DHT22;70693;48.680;8.890;2023-08-08T01:22:24;18.20;99.90
26304;DHT22;70693;48.680;8.890;2023-08-08T01:24:51;18.20;99.90
26304;DHT22;70693;48.680;8.890;2023-08-08T01:27:17;18.20;99.90
26304;DHT22;70693;48.680;8.890;2023-08-08T01:29:43;18.20;99.90
26304;DHT22;70693;48.680;8.890;2023-08-08T01:32:09;18.20;99.90
26304;DHT22;70693;48.680;8.890;2023-08-08T01:34:36;18.20;99.90
26304;DHT22;70693;48.680;8.890;2023-08-08T01:37:15;18.20;99.90
26304;DHT22;70693;48.680;8.890;2023-08-08T01:39:44;18.20;99.90
26304;DHT22;70693;48.680;8.890;2023-08-08T01:42:12;18.20;99.90
26304;DHT22;70693;48.680;8.890;2023-08-08T01:44:40;18.20;99.90
26304;DHT22;70693;48.680;8.890;2023-08-08T01:47:07;18.20;99.90
26304;DHT22;70693;48.680;8.890;2023-08-08T01:49:33;18.20;99.90
26304;DHT22;70693;48.680;8.890;2023-08-08T01:51:59;18.20;99.90
26304;DHT22;70693;48.680;8.890;2023-08-08T01:54:24;18.20;99.90
26304;DHT22;70693;48.680;8.890;2023-08-08T01:56:50;18.20;99.90
26304;DHT22;70693;48.680;8.890;2023-08-08T01:59:16;18.20;99.90
26304;DHT22;70693;48.680;8.890;2023-08-08T02:01:41;18.20;99.90
26304;DHT22;70693;48.680;8.890;2023-08-08T02:04:07;18.20;99.90
26304;DHT22;70693;48.680;8.890;2023-08-08T02:06:33;18.20;99.90
26304;DHT22;70693;48.680;8.890;2023-08-08T02:08:58;18.10;99.90
26304;DHT22;70693;48.680;8.890;2023-08-08T02:11:24;18.20;99.90
26304;DHT22;70693;48.680;8.890;2023-08-08T02:13:49;18.10;99.90
26304;DHT22;70693;48.680;8.890;2023-08-08T02:16:15;18.10;99.90
26304;DHT22;70693;48.680;8.890;2023-08-08T02:18:41;18.10;99.90
26304;DHT22;70693;48.680;8.890;2023-08-08T02:21:09;18.10;99.90
26304;DHT22;70693;48.680;8.890;2023-08-08T02:23:35;18.10;99.90
26304;DHT22;70693;48.680;8.890;2023-08-08T02:26:01;18.10;99.90
26304;DHT22;70693;48.680;8.890;2023-08-08T02:28:27;18.10;99.90
26304;DHT22;70693;48.680;8.890;2023-08-08T02:30:53;18.10;99.90
26304;DHT22;70693;48.680;8.890;2023-08-08T02:33:18;18.10;99.90
26304;DHT22;70693;48.680;8.890;2023-08-08T02:35:44;18.10;99.90
26304;DHT22;70693;48.680;8.890;2023-08-08T02:38:10;18.10;99.90
26304;DHT22;70693;48.680;8.890;2023-08-08T02:40:36;18.20;99.90
26304;DHT22;70693;48.680;8.890;2023-08-08T02:43:02;18.10;99.90
26304;DHT22;70693;48.680;8.890;2023-08-08T02:45:27;18.10;99.90
26304;DHT22;70693;48.680;8.890;2023-08-08T02:47:53;18.10;99.90
26304;DHT22;70693;48.680;8.890;2023-08-08T02:50:19;18.10;99.90
26304;DHT22;70693;48.680;8.890;2023-08-08T02:52:44;18.10;99.90
26304;DHT22;70693;48.680;8.890;2023-08-08T02:55:10;18.10;99.90
26304;DHT22;70693;48.680;8.890;2023-08-08T02:57:36;18.10;99.90
26304;DHT22;70693;48.680;8.890;2023-08-08T03:00:01;18.10;99.90
26304;DHT22;70693;48.680;8.890;2023-08-08T03:02:29;18.10;99.90
26304;DHT22;70693;48.680;8.890;2023-08-08T03:04:54;18.10;99.90
26304;DHT22;70693;48.680;8.890;2023-08-08T03:07:20;18.10;99.90
26304;DHT22;70693;48.680;8.890;2023-08-08T03:09:46;18.10;99.90
26304;DHT22;70693;48.680;8.890;2023-08-08T03:12:11;18.10;99.90
26304;DHT22;70693;48.680;8.890;2023-08-08T03:14:37;18.10;99.90
26304;DHT22;70693;48.680;8.890;2023-08-08T03:17:03;18.10;99.90
26304;DHT22;70693;48.680;8.890;2023-08-08T03:19:28;18.10;99.90
26304;DHT22;70693;48.680;8.890;2023-08-08T03:21:54;18.10;99.90
26304;DHT22;70693;48.680;8.890;2023-08-08T03:24:19;18.10;99.90
26304;DHT22;70693;48.680;8.890;2023-08-08T03:26:45;18.10;99.90
26304;DHT22;70693;48.680;8.890;2023-08-08T03:29:11;18.10;99.90
26304;DHT22;70693;48.680;8.890;2023-08-08T03:31:38;18.10;99.90
26304;DHT22;70693;48.680;8.890;2023-08-08T03:34:03;18.10;99.90
26304;DHT22;70693;48.680;8.890;2023-08-08T03:36:29;18.10;99.90
26304;DHT22;70693;48.680;8.890;2023-08-08T03:38:55;18.10;99.90
26304;DHT22;70693;48.680;8.890;2023-08-08T03:41:21;18.10;99.90
26304;DHT22;70693;48.680;8.890;2023-08-08T03:43:46;18.10;99.90
26304;DHT22;70693;48.680;8.890;2023-08-08T03:46:12;18.10;99.90
26304;DHT22;70693;48.680;8.890;2023-08-08T03:48:38;18.10;99.90
26304;DHT22;70693;48.680;8.890;2023-08-08T03:51:04;18.10;99.90
26304;DHT22;70693;48.680;8.890;2023-08-08T03:53:30;18.00;99.90
26304;DHT22;70693;48.680;8.890;2023-08-08T03:55:55;18.10;99.90
26304;DHT22;70693;48.680;8.890;2023-08-08T03:58:21;18.10;99.90
26304;DHT22;70693;48.680;8.890;2023-08-08T04:00:47;18.10;99.90
26304;DHT22;70693;48.680;8.890;2023-08-08T04:03:14;18.10;99.90
26304;DHT22;70693;48.680;8.890;2023-08-08T04:05:40;18.10;99.90
26304;DHT22;70693;48.680;8.890;2023-08-08T04:08:07;18.10;99.90
26304;DHT22;70693;48.680;8.890;2023-08-08T04:10:32;18.10;99.90
26304;DHT22;70693;48.680;8.890;2023-08-08T04:12:58;18.00;99.90
26304;DHT22;70693;48.680;8.890;2023-08-08T04:15:24;18.10;99.90
26304;DHT22;70693;48.680;8.890;2023-08-08T04:17:49;18.00;99.90
26304;DHT22;70693;48.680;8.890;2023-08-08T04:20:15;18.10;99.90
26304;DHT22;70693;48.680;8.890;2023-08-08T04:22:41;18.10;99.90
26304;DHT22;70693;48.680;8.890;2023-08-08T04:25:07;18.10;99.90
26304;DHT22;70693;48.680;8.890;2023-08-08T04:27:33;18.00;99.90
26304;DHT22;70693;48.680;8.890;2023-08-08T04:29:58;18.10;99.90
26304;DHT22;70693;48.680;8.890;2023-08-08T04:32:24;18.00;99.90
26304;DHT22;70693;48.680;8.890;2023-08-08T04:34:50;18.00;99.90
26304;DHT22;70693;48.680;8.890;2023-08-08T04:37:15;18.00;99.90
26304;DHT22;70693;48.680;8.890;2023-08-08T04:39:41;18.00;99.90
26304;DHT22;70693;48.680;8.890;2023-08-08T04:42:06;18.00;99.90
26304;DHT22;70693;48.680;8.890;2023-08-08T04:44:32;18.00;99.90
26304;DHT22;70693;48.680;8.890;2023-08-08T04:46:58;18.00;99.90
26304;DHT22;70693;48.680;8.890;2023-08-08T04:49:23;18.00;99.90
26304;DHT22;70693;48.680;8.890;2023-08-08T04:51:49;18.00;99.90
26304;DHT22;70693;48.680;8.890;2023-08-08T04:54:14;18.00;99.90
26304;DHT22;70693;48.680;8.890;2023-08-08T04:56:40;18.00;99.90
26304;DHT22;70693;48.680;8.890;2023-08-08T04:59:06;18.00;99.90
26304;DHT22;70693;48.680;8.890;2023-08-08T05:01:32;18.00;99.90
26304;DHT22;70693;48.680;8.890;2023-08-08T05:03:59;18.00;99.90
26304;DHT22;70693;48.680;8.890;2023-08-08T05:06:24;18.00;99.90
26304;DHT22;70693;48.680;8.890;2023-08-08T05:08:52;18.00;99.90
26304;DHT22;70693;48.680;8.890;2023-08-08T05:11:18;18.00;99.90
26304;DHT22;70693;48.680;8.890;2023-08-08T05:13:43;18.00;99.90
26304;DHT22;70693;48.680;8.890;2023-08-08T05:16:09;18.00;99.90
26304;DHT22;70693;48.680;8.890;2023-08-08T05:18:34;18.00;99.90
26304;DHT22;70693;48.680;8.890;2023-08-08T05:21:00;18.00;99.90
26304;DHT22;70693;48.680;8.890;2023-08-08T05:23:26;18.00;99.90
26304;DHT22;70693;48.680;8.890;2023-08-08T05:25:51;18.00;99.90
26304;DHT22;70693;48.680;8.890;2023-08-08T05:28:17;18.00;99.90
26304;DHT22;70693;48.680;8.890;2023-08-08T05:30:42;18.00;99.90
26304;DHT22;70693;48.680;8.890;2023-08-08T05:33:08;18.00;99.90
26304;DHT22;70693;48.680;8.890;2023-08-08T05:35:34;18.00;99.90
26304;DHT22;70693;48.680;8.890;2023-08-08T05:37:59;18.00;99.90
26304;DHT22;70693;48.680;8.890;2023-08-08T05:40:25;18.00;99.90
26304;DHT22;70693;48.680;8.890;2023-08-08T05:42:51;18.00;99.90
26304;DHT22;70693;48.680;8.890;2023-08-08T05:45:17;18.00;99.90
26304;DHT22;70693;48.680;8.890;2023-08-08T05:47:42;18.00;99.90
26304;DHT22;70693;48.680;8.890;2023-08-08T05:50:08;18.00;99.90
26304;DHT22;70693;48.680;8.890;2023-08-08T05:52:34;18.00;99.90
26304;DHT22;70693;48.680;8.890;2023-08-08T05:54:59;18.00;99.90
26304;DHT22;70693;48.680;8.890;2023-08-08T05:57:25;18.00;99.90
26304;DHT22;70693;48.680;8.890;2023-08-08T05:59:51;18.00;99.90
26304;DHT22;70693;48.680;8.890;2023-08-08T06:02:17;18.00;99.90
26304;DHT22;70693;48.680;8.890;2023-08-08T06:04:43;18.00;99.90
26304;DHT22;70693;48.680;8.890;2023-08-08T06:07:09;18.00;99.90
26304;DHT22;70693;48.680;8.890;2023-08-08T06:09:35;18.00;99.90
26304;DHT22;70693;48.680;8.890;2023-08-08T06:12:02;18.00;99.90
26304;DHT22;70693;48.680;8.890;2023-08-08T06:14:28;18.00;99.90
26304;DHT22;70693;48.680;8.890;2023-08-08T06:16:53;18.00;99.90
26304;DHT22;70693;48.680;8.890;2023-08-08T06:19:19;18.00;99.90
26304;DHT22;70693;48.680;8.890;2023-08-08T06:21:46;18.00;99.90
26304;DHT22;70693;48.680;8.890;2023-08-08T06:24:12;18.00;99.90
26304;DHT22;70693;48.680;8.890;2023-08-08T06:26:38;18.00;99.90
26304;DHT22;70693;48.680;8.890;2023-08-08T06:29:03;18.00;99.90
26304;DHT22;70693;48.680;8.890;2023-08-08T06:31:29;18.00;99.90
26304;DHT22;70693;48.680;8.890;2023-08-08T06:33:55;18.00;99.90
26304;DHT22;70693;48.680;8.890;2023-08-08T06:36:21;18.00;99.90
26304;DHT22;70693;48.680;8.890;2023-08-08T06:38:46;18.00;99.90
26304;DHT22;70693;48.680;8.890;2023-08-08T06:41:12;18.00;99.90
26304;DHT22;70693;48.680;8.890;2023-08-08T06:43:38;18.00;99.90
26304;DHT22;70693;48.680;8.890;2023-08-08T06:46:04;18.10;99.90
26304;DHT22;70693;48.680;8.890;2023-08-08T06:48:30;18.00;99.90
26304;DHT22;70693;48.680;8.890;2023-08-08T06:50:55;18.00;99.90
26304;DHT22;70693;48.680;8.890;2023-08-08T06:53:21;18.10;99.90
26304;DHT22;70693;48.680;8.890;2023-08-08T06:55:47;18.10;99.90
26304;DHT22;70693;48.680;8.890;2023-08-08T06:58:12;18.10;99.90
26304;DHT22;70693;48.680;8.890;2023-08-08T07:00:38;18.10;99.90
26304;DHT22;70693;48.680;8.890;2023-08-08T07:03:04;18.10;99.90
26304;DHT22;70693;48.680;8.890;2023-08-08T07:05:30;18.10;99.90
26304;DHT22;70693;48.680;8.890;2023-08-08T07:07:56;18.10;99.90
26304;DHT22;70693;48.680;8.890;2023-08-08T07:10:22;18.10;99.90
26304;DHT22;70693;48.680;8.890;2023-08-08T07:12:47;18.10;99.90
26304;DHT22;70693;48.680;8.890;2023-08-08T07:15:14;18.10;99.90
26304;DHT22;70693;48.680;8.890;2023-08-08T07:17:40;18.10;99.90
26304;DHT22;70693;48.680;8.890;2023-08-08T07:20:06;18.10;99.90
26304;DHT22;70693;48.680;8.890;2023-08-08T07:22:32;18.10;99.90
26304;DHT22;70693;48.680;8.890;2023-08-08T07:24:58;18.10;99.90
26304;DHT22;70693;48.680;8.890;2023-08-08T07:27:26;18.10;99.90
26304;DHT22;70693;48.680;8.890;2023-08-08T07:29:52;18.10;99.90
26304;DHT22;70693;48.680;8.890;2023-08-08T07:32:17;18.10;99.90
26304;DHT22;70693;48.680;8.890;2023-08-08T07:34:43;18.20;99.90
26304;DHT22;70693;48.680;8.890;2023-08-08T07:37:09;18.20;99.90
26304;DHT22;70693;48.680;8.890;2023-08-08T07:39:34;18.20;99.90
26304;DHT22;70693;48.680;8.890;2023-08-08T07:42:00;18.10;99.90
26304;DHT22;70693;48.680;8.890;2023-08-08T07:44:26;18.20;99.90
26304;DHT22;70693;48.680;8.890;2023-08-08T07:46:51;18.20;99.90
26304;DHT22;70693;48.680;8.890;2023-08-08T07:49:17;18.20;99.90
26304;DHT22;70693;48.680;8.890;2023-08-08T07:51:43;18.20;99.90
26304;DHT22;70693;48.680;8.890;2023-08-08T07:54:08;18.20;99.90
26304;DHT22;70693;48.680;8.890;2023-08-08T07:56:36;18.20;99.90
26304;DHT22;70693;48.680;8.890;2023-08-08T07:59:02;18.20;99.90
26304;DHT22;70693;48.680;8.890;2023-08-08T08:01:28;18.20;99.90
26304;DHT22;70693;48.680;8.890;2023-08-08T08:03:53;18.20;99.90
26304;DHT22;70693;48.680;8.890;2023-08-08T08:06:19;18.20;99.90
26304;DHT22;70693;48.680;8.890;2023-08-08T08:08:45;18.20;99.90
26304;DHT22;70693;48.680;8.890;2023-08-08T08:11:11;18.20;99.90
26304;DHT22;70693;48.680;8.890;2023-08-08T08:13:38;18.20;99.90
26304;DHT22;70693;48.680;8.890;2023-08-08T08:16:04;18.20;99.90
26304;DHT22;70693;48.680;8.890;2023-08-08T08:18:30;18.20;99.90
26304;DHT22;70693;48.680;8.890;2023-08-08T08:20:56;18.20;99.90
26304;DHT22;70693;48.680;8.890;2023-08-08T08:23:22;18.20;99.90
26304;DHT22;70693;48.680;8.890;2023-08-08T08:25:47;18.20;99.90
26304;DHT22;70693;48.680;8.890;2023-08-08T08:28:14;18.20;99.90
26304;DHT22;70693;48.680;8.890;2023-08-08T08:30:40;18.20;99.90
26304;DHT22;70693;48.680;8.890;2023-08-08T08:33:06;18.10;99.90
26304;DHT22;70693;48.680;8.890;2023-08-08T08:35:34;18.10;99.90
26304;DHT22;70693;48.680;8.890;2023-08-08T08:38:00;18.10;99.90
26304;DHT22;70693;48.680;8.890;2023-08-08T08:40:26;18.10;99.90
26304;DHT22;70693;48.680;8.890;2023-08-08T08:42:53;18.10;99.90
26304;DHT22;70693;48.680;8.890;2023-08-08T08:45:20;18.10;99.90
26304;DHT22;70693;48.680;8.890;2023-08-08T08:47:47;18.10;99.90
26304;DHT22;70693;48.680;8.890;2023-08-08T08:50:15;18.20;99.90
26304;DHT22;70693;48.680;8.890;2023-08-08T08:52:43;18.20;99.90
26304;DHT22;70693;48.680;8.890;2023-08-08T08:55:09;18.20;99.90
26304;DHT22;70693;48.680;8.890;2023-08-08T08:57:36;18.20;99.90
26304;DHT22;70693;48.680;8.890;2023-08-08T09:00:03;18.20;99.90
26304;DHT22;70693;48.680;8.890;2023-08-08T09:02:28;18.20;99.90
26304;DHT22;70693;48.680;8.890;2023-08-08T09:04:54;18.20;99.90
26304;DHT22;70693;48.680;8.890;2023-08-08T09:07:23;18.20;99.90
26304;DHT22;70693;48.680;8.890;2023-08-08T09:09:51;18.20;99.90
26304;DHT22;70693;48.680;8.890;2023-08-08T09:12:18;18.30;99.90
26304;DHT22;70693;48.680;8.890;2023-08-08T09:14:44;18.30;99.90
26304;DHT22;70693;48.680;8.890;2023-08-08T09:17:13;18.30;99.90
26304;DHT22;70693;48.680;8.890;2023-08-08T09:19:43;18.30;99.90
26304;DHT22;70693;48.680;8.890;2023-08-08T09:22:09;18.30;99.90
26304;DHT22;70693;48.680;8.890;2023-08-08T09:24:41;18.30;99.90
26304;DHT22;70693;48.680;8.890;2023-08-08T09:27:07;18.30;99.90
26304;DHT22;70693;48.680;8.890;2023-08-08T09:29:33;18.30;99.90
26304;DHT22;70693;48.680;8.890;2023-08-08T09:31:59;18.30;99.90
26304;DHT22;70693;48.680;8.890;2023-08-08T09:34:28;18.30;99.90
26304;DHT22;70693;48.680;8.890;2023-08-08T09:36:54;18.40;99.90
26304;DHT22;70693;48.680;8.890;2023-08-08T09:39:20;18.40;99.90
26304;DHT22;70693;48.680;8.890;2023-08-08T09:41:46;18.30;99.90
26304;DHT22;70693;48.680;8.890;2023-08-08T09:44:12;18.30;99.90
26304;DHT22;70693;48.680;8.890;2023-08-08T09:46:39;18.40;99.90
26304;DHT22;70693;48.680;8.890;2023-08-08T09:49:05;18.40;99.90
26304;DHT22;70693;48.680;8.890;2023-08-08T09:51:31;18.40;99.90
26304;DHT22;70693;48.680;8.890;2023-08-08T09:53:59;18.40;99.90
26304;DHT22;70693;48.680;8.890;2023-08-08T09:56:26;18.40;99.90
26304;DHT22;70693;48.680;8.890;2023-08-08T09:58:55;18.40;99.90
26304;DHT22;70693;48.680;8.890;2023-08-08T10:01:22;18.40;99.90
26304;DHT22;70693;48.680;8.890;2023-08-08T10:03:49;18.40;99.90
26304;DHT22;70693;48.680;8.890;2023-08-08T10:06:16;18.40;99.90
26304;DHT22;70693;48.680;8.890;2023-08-08T10:08:42;18.40;99.90
26304;DHT22;70693;48.680;8.890;2023-08-08T10:11:08;18.40;99.90
26304;DHT22;70693;48.680;8.890;2023-08-08T10:13:36;18.50;99.90
26304;DHT22;70693;48.680;8.890;2023-08-08T10:16:08;18.50;99.90
26304;DHT22;70693;48.680;8.890;2023-08-08T10:18:34;18.50;99.90
26304;DHT22;70693;48.680;8.890;2023-08-08T10:21:00;18.50;99.90
26304;DHT22;70693;48.680;8.890;2023-08-08T10:23:37;18.50;99.90
26304;DHT22;70693;48.680;8.890;2023-08-08T10:26:04;18.50;99.90
26304;DHT22;70693;48.680;8.890;2023-08-08T10:28:32;18.50;99.90
26304;DHT22;70693;48.680;8.890;2023-08-08T10:30:59;18.50;99.90
26304;DHT22;70693;48.680;8.890;2023-08-08T10:33:39;18.50;99.90
26304;DHT22;70693;48.680;8.890;2023-08-08T10:36:07;18.50;99.90
26304;DHT22;70693;48.680;8.890;2023-08-08T10:38:46;18.50;99.90
26304;DHT22;70693;48.680;8.890;2023-08-08T10:41:16;18.50;99.90
26304;DHT22;70693;48.680;8.890;2023-08-08T10:48:50;18.70;99.90
26304;DHT22;70693;48.680;8.890;2023-08-08T10:51:17;18.60;99.90
26304;DHT22;70693;48.680;8.890;2023-08-08T10:53:43;18.60;99.90
26304;DHT22;70693;48.680;8.890;2023-08-08T10:56:12;18.60;99.90
26304;DHT22;70693;48.680;8.890;2023-08-08T10:58:40;18.60;99.90
26304;DHT22;70693;48.680;8.890;2023-08-08T11:01:07;18.60;99.90
26304;DHT22;70693;48.680;8.890;2023-08-08T11:03:35;18.60;99.90
26304;DHT22;70693;48.680;8.890;2023-08-08T11:06:03;18.70;99.90
26304;DHT22;70693;48.680;8.890;2023-08-08T11:08:30;18.70;99.90
26304;DHT22;70693;48.680;8.890;2023-08-08T11:10:57;18.70;99.90
26304;DHT22;70693;48.680;8.890;2023-08-08T11:13:22;18.60;99.90
26304;DHT22;70693;48.680;8.890;2023-08-08T11:15:48;18.70;99.90
26304;DHT22;70693;48.680;8.890;2023-08-08T11:18:14;18.70;99.90
26304;DHT22;70693;48.680;8.890;2023-08-08T11:20:40;18.70;99.90
26304;DHT22;70693;48.680;8.890;2023-08-08T11:23:05;18.80;99.90
26304;DHT22;70693;48.680;8.890;2023-08-08T11:25:35;18.80;99.90
26304;DHT22;70693;48.680;8.890;2023-08-08T11:28:01;18.80;99.90
26304;DHT22;70693;48.680;8.890;2023-08-08T11:30:29;18.80;99.90
26304;DHT22;70693;48.680;8.890;2023-08-08T11:32:55;18.80;99.90
26304;DHT22;70693;48.680;8.890;2023-08-08T11:35:22;18.80;99.90
26304;DHT22;70693;48.680;8.890;2023-08-08T11:37:50;18.80;99.90
26304;DHT22;70693;48.680;8.890;2023-08-08T11:40:17;18.80;99.90
26304;DHT22;70693;48.680;8.890;2023-08-08T11:42:43;18.90;99.90
26304;DHT22;70693;48.680;8.890;2023-08-08T11:45:13;18.90;99.90
26304;DHT22;70693;48.680;8.890;2023-08-08T11:47:39;18.90;99.90
26304;DHT22;70693;48.680;8.890;2023-08-08T11:50:07;18.90;99.90
26304;DHT22;70693;48.680;8.890;2023-08-08T11:52:40;18.90;99.90
26304;DHT22;70693;48.680;8.890;2023-08-08T11:55:07;18.90;99.90
26304;DHT22;70693;48.680;8.890;2023-08-08T11:57:38;18.90;99.90
26304;DHT22;70693;48.680;8.890;2023-08-08T12:00:09;18.90;99.90
26304;DHT22;70693;48.680;8.890;2023-08-08T12:02:38;18.90;99.90
26304;DHT22;70693;48.680;8.890;2023-08-08T12:05:12;18.90;99.90
26304;DHT22;70693;48.680;8.890;2023-08-08T12:07:39;18.90;99.90
26304;DHT22;70693;48.680;8.890;2023-08-08T12:10:15;18.90;99.90
26304;DHT22;70693;48.680;8.890;2023-08-08T12:12:42;18.90;99.90
26304;DHT22;70693;48.680;8.890;2023-08-08T12:15:08;19.00;99.90
26304;DHT22;70693;48.680;8.890;2023-08-08T12:17:34;19.00;99.90
26304;DHT22;70693;48.680;8.890;2023-08-08T12:20:04;19.00;99.90
26304;DHT22;70693;48.680;8.890;2023-08-08T12:22:33;19.00;99.90
26304;DHT22;70693;48.680;8.890;2023-08-08T12:24:59;19.00;99.90
26304;DHT22;70693;48.680;8.890;2023-08-08T12:27:25;19.00;99.90
26304;DHT22;70693;48.680;8.890;2023-08-08T12:29:51;19.00;99.90
26304;DHT22;70693;48.680;8.890;2023-08-08T12:32:19;19.00;99.90
26304;DHT22;70693;48.680;8.890;2023-08-08T12:34:45;19.00;99.90
26304;DHT22;70693;48.680;8.890;2023-08-08T12:37:10;19.00;99.90
26304;DHT22;70693;48.680;8.890;2023-08-08T12:39:36;19.00;99.90
26304;DHT22;70693;48.680;8.890;2023-08-08T12:42:02;19.00;99.90
26304;DHT22;70693;48.680;8.890;2023-08-08T12:44:27;19.00;99.90
26304;DHT22;70693;48.680;8.890;2023-08-08T12:46:53;19.00;99.90
26304;DHT22;70693;48.680;8.890;2023-08-08T12:49:19;19.00;99.90
26304;DHT22;70693;48.680;8.890;2023-08-08T12:51:44;19.00;99.90
26304;DHT22;70693;48.680;8.890;2023-08-08T12:54:10;19.00;99.90
26304;DHT22;70693;48.680;8.890;2023-08-08T12:56:35;19.00;99.90
26304;DHT22;70693;48.680;8.890;2023-08-08T12:59:01;19.00;99.90
26304;DHT22;70693;48.680;8.890;2023-08-08T13:01:28;19.00;99.90
26304;DHT22;70693;48.680;8.890;2023-08-08T13:03:54;19.00;99.90
26304;DHT22;70693;48.680;8.890;2023-08-08T13:06:20;19.00;99.90
26304;DHT22;70693;48.680;8.890;2023-08-08T13:08:45;19.00;99.90
26304;DHT22;70693;48.680;8.890;2023-08-08T13:11:11;19.00;99.90
26304;DHT22;70693;48.680;8.890;2023-08-08T13:13:37;19.00;99.90
26304;DHT22;70693;48.680;8.890;2023-08-08T13:16:02;19.00;99.90
26304;DHT22;70693;48.680;8.890;2023-08-08T13:18:28;19.00;99.90
26304;DHT22;70693;48.680;8.890;2023-08-08T13:20:54;19.00;99.90
26304;DHT22;70693;48.680;8.890;2023-08-08T13:23:20;19.00;99.90
26304;DHT22;70693;48.680;8.890;2023-08-08T13:25:45;19.00;99.90
26304;DHT22;70693;48.680;8.890;2023-08-08T13:28:11;19.00;99.90
26304;DHT22;70693;48.680;8.890;2023-08-08T13:30:37;19.00;99.90
26304;DHT22;70693;48.680;8.890;2023-08-08T13:33:03;19.00;99.90
26304;DHT22;70693;48.680;8.890;2023-08-08T13:35:29;19.00;99.90
26304;DHT22;70693;48.680;8.890;2023-08-08T13:37:55;19.00;99.90
26304;DHT22;70693;48.680;8.890;2023-08-08T13:40:21;19.00;99.90
26304;DHT22;70693;48.680;8.890;2023-08-08T13:42:47;19.00;99.90
26304;DHT22;70693;48.680;8.890;2023-08-08T13:45:14;19.00;99.90
26304;DHT22;70693;48.680;8.890;2023-08-08T13:47:40;19.00;99.90
26304;DHT22;70693;48.680;8.890;2023-08-08T13:50:06;19.00;99.90
26304;DHT22;70693;48.680;8.890;2023-08-08T13:52:33;19.00;99.90
26304;DHT22;70693;48.680;8.890;2023-08-08T13:54:59;19.00;99.90
26304;DHT22;70693;48.680;8.890;2023-08-08T13:57:25;19.00;99.90
26304;DHT22;70693;48.680;8.890;2023-08-08T13:59:51;19.10;99.90
26304;DHT22;70693;48.680;8.890;2023-08-08T14:02:16;19.00;99.90
26304;DHT22;70693;48.680;8.890;2023-08-08T14:04:44;19.00;99.90
26304;DHT22;70693;48.680;8.890;2023-08-08T14:07:10;19.00;99.90
26304;DHT22;70693;48.680;8.890;2023-08-08T14:09:35;19.00;99.90
26304;DHT22;70693;48.680;8.890;2023-08-08T14:12:01;19.00;99.90
26304;DHT22;70693;48.680;8.890;2023-08-08T14:14:27;19.00;99.90
26304;DHT22;70693;48.680;8.890;2023-08-08T14:16:52;19.00;99.90
26304;DHT22;70693;48.680;8.890;2023-08-08T14:19:18;19.00;99.90
26304;DHT22;70693;48.680;8.890;2023-08-08T14:21:44;19.00;99.90
26304;DHT22;70693;48.680;8.890;2023-08-08T14:24:10;19.00;99.90
26304;DHT22;70693;48.680;8.890;2023-08-08T14:26:36;19.10;99.90
26304;DHT22;70693;48.680;8.890;2023-08-08T14:29:02;19.00;99.90
26304;DHT22;70693;48.680;8.890;2023-08-08T14:31:27;19.10;99.90
26304;DHT22;70693;48.680;8.890;2023-08-08T14:33:53;19.10;99.90
26304;DHT22;70693;48.680;8.890;2023-08-08T14:36:19;19.00;99.90
26304;DHT22;70693;48.680;8.890;2023-08-08T14:38:44;19.10;99.90
26304;DHT22;70693;48.680;8.890;2023-08-08T14:41:10;19.10;99.90
26304;DHT22;70693;48.680;8.890;2023-08-08T14:43:36;19.00;99.90
26304;DHT22;70693;48.680;8.890;2023-08-08T14:46:01;19.00;99.90
26304;DHT22;70693;48.680;8.890;2023-08-08T14:48:27;19.00;99.90
26304;DHT22;70693;48.680;8.890;2023-08-08T14:50:53;19.00;99.90
26304;DHT22;70693;48.680;8.890;2023-08-08T14:53:18;19.10;99.90
26304;DHT22;70693;48.680;8.890;2023-08-08T14:55:44;19.00;99.90
26304;DHT22;70693;48.680;8.890;2023-08-08T14:58:10;19.00;99.90
26304;DHT22;70693;48.680;8.890;2023-08-08T15:00:36;19.00;99.90
26304;DHT22;70693;48.680;8.890;2023-08-08T15:03:01;19.10;99.90
26304;DHT22;70693;48.680;8.890;2023-08-08T15:05:27;19.00;99.90
26304;DHT22;70693;48.680;8.890;2023-08-08T15:07:53;19.00;99.90
26304;DHT22;70693;48.680;8.890;2023-08-08T15:10:18;19.00;99.90
26304;DHT22;70693;48.680;8.890;2023-08-08T15:12:44;19.10;99.90
26304;DHT22;70693;48.680;8.890;2023-08-08T15:15:10;19.00;99.90
26304;DHT22;70693;48.680;8.890;2023-08-08T15:17:36;19.00;99.90
26304;DHT22;70693;48.680;8.890;2023-08-08T15:20:02;19.10;99.90
26304;DHT22;70693;48.680;8.890;2023-08-08T15:22:28;19.10;99.90
26304;DHT22;70693;48.680;8.890;2023-08-08T15:24:54;19.10;99.90
26304;DHT22;70693;48.680;8.890;2023-08-08T15:27:19;19.10;99.90
26304;DHT22;70693;48.680;8.890;2023-08-08T15:29:45;19.10;99.90